Time,TemperatureF,DewpointF,PressureIn,WindDirection,WindDirectionDegrees,WindSpeedMPH,WindSpeedGustMPH,Humidity,HourlyPrecipIn,Conditions,Clouds,dailyrainin,SoftwareType,DateUTC
2013-05-27 00:01:00,58.5,54.3,30.21,SW,222,0.0,0.0,86,0.00,,,0.00,Wunderground v.1.15,2013-05-27 04:01:00,
2013-05-27 00:02:00,58.5,54.3,30.21,SW,221,0.0,0.0,86,0.00,,,0.00,Wunderground v.1.15,2013-05-27 04:02:00,
2013-05-27 00:08:00,58.5,54.0,30.22,SW,223,0.0,1.0,85,0.00,,,0.00,Wunderground v.1.15,2013-05-27 04:08:00,
2013-05-27 00:10:00,58.5,54.0,30.22,SW,222,0.0,0.0,85,0.00,,,0.00,Wunderground v.1.15,2013-05-27 04:10:00,
2013-05-27 00:14:00,58.6,53.8,30.22,SE,138,0.0,3.0,84,0.00,,,0.00,Wunderground v.1.15,2013-05-27 04:14:00,
2013-05-27 00:16:00,58.8,54.0,30.22,SE,146,1.0,7.0,84,0.00,,,0.00,Wunderground v.1.15,2013-05-27 04:16:00,
2013-05-27 00:22:00,60.2,55.0,30.22,ESE,120,2.0,2.0,83,0.00,,,0.00,Wunderground v.1.15,2013-05-27 04:22:00,
2013-05-27 00:28:00,59.4,53.9,30.22,South,188,1.0,3.0,82,0.00,,,0.00,Wunderground v.1.15,2013-05-27 04:28:00,
2013-05-27 00:34:00,59.1,53.9,30.22,South,188,2.0,2.0,83,0.00,,,0.00,Wunderground v.1.15,2013-05-27 04:34:00,
2013-05-27 00:40:00,59.2,54.0,30.22,South,187,1.0,1.0,83,0.00,,,0.00,Wunderground v.1.15,2013-05-27 04:40:00,
2013-05-27 00:46:00,59.0,53.8,30.22,South,187,0.0,1.0,83,0.00,,,0.00,Wunderground v.1.15,2013-05-27 04:46:00,
2013-05-27 00:52:00,58.8,54.3,30.22,South,187,0.0,0.0,85,0.00,,,0.00,Wunderground v.1.15,2013-05-27 04:52:00,
2013-05-27 00:58:00,58.6,54.4,30.21,South,187,0.0,0.0,86,0.00,,,0.00,Wunderground v.1.15,2013-05-27 04:58:00,
2013-05-27 01:04:00,58.4,54.2,30.21,South,187,0.0,1.0,86,0.00,,,0.00,Wunderground v.1.15,2013-05-27 05:04:00,
2013-05-27 01:10:00,58.2,54.0,30.21,South,188,0.0,1.0,86,0.00,,,0.00,Wunderground v.1.15,2013-05-27 05:10:00,
2013-05-27 01:16:00,58.1,53.9,30.21,South,188,1.0,2.0,86,0.00,,,0.00,Wunderground v.1.15,2013-05-27 05:16:00,
2013-05-27 01:22:00,58.2,54.0,30.21,South,187,1.0,1.0,86,0.00,,,0.00,Wunderground v.1.15,2013-05-27 05:22:00,
2013-05-27 01:28:00,58.0,53.8,30.21,South,179,0.0,1.0,86,0.00,,,0.00,Wunderground v.1.15,2013-05-27 05:28:00,
2013-05-27 01:34:00,57.8,54.3,30.21,South,179,0.0,1.0,88,0.00,,,0.00,Wunderground v.1.15,2013-05-27 05:34:00,
2013-05-27 01:40:00,57.6,54.1,30.21,South,179,0.0,1.0,88,0.00,,,0.00,Wunderground v.1.15,2013-05-27 05:40:00,
2013-05-27 01:46:00,57.6,54.1,30.21,South,179,0.0,1.0,88,0.00,,,0.00,Wunderground v.1.15,2013-05-27 05:46:00,
2013-05-27 01:52:00,57.5,54.0,30.21,South,179,0.0,1.0,88,0.00,,,0.00,Wunderground v.1.15,2013-05-27 05:52:00,
2013-05-27 01:58:00,57.5,54.6,30.20,South,179,0.0,1.0,90,0.00,,,0.00,Wunderground v.1.15,2013-05-27 05:58:00,
2013-05-27 02:04:00,57.3,54.4,30.20,South,180,0.0,1.0,90,0.00,,,0.00,Wunderground v.1.15,2013-05-27 06:04:00,
2013-05-27 02:10:00,57.4,54.8,30.21,South,180,0.0,1.0,91,0.00,,,0.00,Wunderground v.1.15,2013-05-27 06:10:00,
2013-05-27 02:16:00,57.6,54.7,30.21,South,180,0.0,1.0,90,0.00,,,0.00,Wunderground v.1.15,2013-05-27 06:16:00,
2013-05-27 02:22:00,57.4,54.5,30.21,South,180,0.0,1.0,90,0.00,,,0.00,Wunderground v.1.15,2013-05-27 06:22:00,
2013-05-27 02:28:00,57.4,54.5,30.21,South,180,0.0,1.0,90,0.00,,,0.00,Wunderground v.1.15,2013-05-27 06:28:00,
2013-05-27 02:34:00,57.2,54.6,30.21,South,180,0.0,1.0,91,0.00,,,0.00,Wunderground v.1.15,2013-05-27 06:34:00,
2013-05-27 02:40:00,57.2,54.6,30.21,South,180,0.0,1.0,91,0.00,,,0.00,Wunderground v.1.15,2013-05-27 06:40:00,
2013-05-27 02:46:00,57.4,54.8,30.20,South,180,0.0,1.0,91,0.00,,,0.00,Wunderground v.1.15,2013-05-27 06:46:00,
2013-05-27 02:52:00,57.2,54.3,30.20,South,180,0.0,1.0,90,0.00,,,0.00,Wunderground v.1.15,2013-05-27 06:52:00,
2013-05-27 02:58:00,57.3,54.4,30.20,South,181,0.0,1.0,90,0.00,,,0.00,Wunderground v.1.15,2013-05-27 06:58:00,
2013-05-27 03:04:00,57.4,54.5,30.20,South,180,0.0,1.0,90,0.00,,,0.00,Wunderground v.1.15,2013-05-27 07:04:00,
2013-05-27 03:10:00,57.7,54.5,30.20,South,180,0.0,1.0,89,0.00,,,0.00,Wunderground v.1.15,2013-05-27 07:10:00,
2013-05-27 03:16:00,57.9,54.7,30.20,South,180,0.0,1.0,89,0.00,,,0.00,Wunderground v.1.15,2013-05-27 07:16:00,
2013-05-27 03:22:00,57.6,54.4,30.20,South,180,0.0,1.0,89,0.00,,,0.00,Wunderground v.1.15,2013-05-27 07:22:00,
2013-05-27 03:28:00,57.3,54.4,30.20,South,179,0.0,1.0,90,0.00,,,0.00,Wunderground v.1.15,2013-05-27 07:28:00,
2013-05-27 03:34:00,57.1,54.2,30.20,South,180,0.0,1.0,90,0.00,,,0.00,Wunderground v.1.15,2013-05-27 07:34:00,
2013-05-27 03:40:00,57.1,54.5,30.20,South,180,0.0,1.0,91,0.00,,,0.00,Wunderground v.1.15,2013-05-27 07:40:00,
2013-05-27 03:46:00,57.1,54.8,30.20,South,180,0.0,1.0,92,0.00,,,0.00,Wunderground v.1.15,2013-05-27 07:46:00,
2013-05-27 03:52:00,57.0,54.4,30.20,South,180,0.0,1.0,91,0.00,,,0.00,Wunderground v.1.15,2013-05-27 07:52:00,
2013-05-27 03:58:00,56.6,54.3,30.19,West,259,0.0,1.0,92,0.00,,,0.00,Wunderground v.1.15,2013-05-27 07:58:00,
2013-05-27 04:04:00,56.6,54.6,30.20,NW,312,1.0,2.0,93,0.00,,,0.00,Wunderground v.1.15,2013-05-27 08:04:00,
2013-05-27 04:10:00,57.3,55.0,30.20,WNW,294,2.0,2.0,92,0.00,,,0.00,Wunderground v.1.15,2013-05-27 08:10:00,
2013-05-27 04:16:00,57.7,55.1,30.19,West,281,1.0,2.0,91,0.00,,,0.00,Wunderground v.1.15,2013-05-27 08:16:00,
2013-05-27 04:22:00,57.9,55.3,30.19,WNW,283,1.0,2.0,91,0.00,,,0.00,Wunderground v.1.15,2013-05-27 08:22:00,
2013-05-27 04:28:00,58.0,55.4,30.19,NW,321,1.0,2.0,91,0.00,,,0.00,Wunderground v.1.15,2013-05-27 08:28:00,
2013-05-27 04:34:00,58.2,55.6,30.20,NW,319,1.0,2.0,91,0.00,,,0.00,Wunderground v.1.15,2013-05-27 08:34:00,
2013-05-27 04:40:00,58.3,55.4,30.20,WNW,284,1.0,1.0,90,0.00,,,0.00,Wunderground v.1.15,2013-05-27 08:40:00,
2013-05-27 04:46:00,58.0,55.1,30.20,NW,307,1.0,2.0,90,0.00,,,0.00,Wunderground v.1.15,2013-05-27 08:46:00,
2013-05-27 04:52:00,58.2,55.3,30.20,NW,306,2.0,2.0,90,0.00,,,0.00,Wunderground v.1.15,2013-05-27 08:52:00,
2013-05-27 04:58:00,58.3,55.4,30.20,NW,320,2.0,3.0,90,0.00,,,0.00,Wunderground v.1.15,2013-05-27 08:58:00,
2013-05-27 05:04:00,58.4,55.2,30.20,WNW,302,2.0,3.0,89,0.00,,,0.00,Wunderground v.1.15,2013-05-27 09:04:00,
2013-05-27 05:10:00,58.3,54.8,30.20,NW,309,2.0,2.0,88,0.00,,,0.00,Wunderground v.1.15,2013-05-27 09:10:00,
2013-05-27 05:16:00,58.2,55.0,30.20,NW,315,3.0,3.0,89,0.00,,,0.00,Wunderground v.1.15,2013-05-27 09:16:00,
2013-05-27 05:22:00,58.2,55.0,30.20,NW,308,3.0,5.0,89,0.00,,,0.00,Wunderground v.1.15,2013-05-27 09:22:00,
2013-05-27 05:28:00,58.2,55.0,30.20,NW,322,3.0,5.0,89,0.00,,,0.00,Wunderground v.1.15,2013-05-27 09:28:00,
2013-05-27 05:34:00,58.3,55.1,30.20,NNW,327,3.0,4.0,89,0.00,,,0.00,Wunderground v.1.15,2013-05-27 09:34:00,
2013-05-27 05:40:00,58.3,54.8,30.21,NW,311,3.0,3.0,88,0.00,,,0.00,Wunderground v.1.15,2013-05-27 09:40:00,
2013-05-27 05:46:00,58.4,54.9,30.21,West,281,3.0,3.0,88,0.00,,,0.00,Wunderground v.1.15,2013-05-27 09:46:00,
2013-05-27 05:52:00,58.4,54.5,30.21,NW,312,3.0,4.0,87,0.00,,,0.00,Wunderground v.1.15,2013-05-27 09:52:00,
2013-05-27 05:58:00,58.3,54.4,30.21,WNW,282,3.0,4.0,87,0.00,,,0.00,Wunderground v.1.15,2013-05-27 09:58:00,
2013-05-27 06:04:00,58.2,54.7,30.21,NW,305,3.0,4.0,88,0.00,,,0.00,Wunderground v.1.15,2013-05-27 10:04:00,
2013-05-27 06:10:00,58.3,54.4,30.22,NW,307,3.0,3.0,87,0.00,,,0.00,Wunderground v.1.15,2013-05-27 10:10:00,
2013-05-27 06:16:00,58.4,54.5,30.22,NW,323,3.0,3.0,87,0.00,,,0.00,Wunderground v.1.15,2013-05-27 10:16:00,
2013-05-27 06:22:00,58.4,54.2,30.22,NW,304,3.0,3.0,86,0.00,,,0.00,Wunderground v.1.15,2013-05-27 10:22:00,
2013-05-27 06:28:00,58.5,54.3,30.22,NW,305,3.0,4.0,86,0.00,,,0.00,Wunderground v.1.15,2013-05-27 10:28:00,
2013-05-27 06:34:00,58.5,54.6,30.22,NW,315,3.0,3.0,87,0.00,,,0.00,Wunderground v.1.15,2013-05-27 10:34:00,
2013-05-27 06:40:00,58.7,54.5,30.23,NW,311,2.0,3.0,86,0.00,,,0.00,Wunderground v.1.15,2013-05-27 10:40:00,
2013-05-27 06:46:00,58.9,54.7,30.22,NW,314,2.0,3.0,86,0.00,,,0.00,Wunderground v.1.15,2013-05-27 10:46:00,
2013-05-27 06:52:00,59.2,55.0,30.23,NW,314,1.0,3.0,86,0.00,,,0.00,Wunderground v.1.15,2013-05-27 10:52:00,
2013-05-27 06:58:00,59.5,55.0,30.23,NW,309,2.0,3.0,85,0.00,,,0.00,Wunderground v.1.15,2013-05-27 10:58:00,
2013-05-27 07:04:00,59.9,55.4,30.23,NW,311,2.0,2.0,85,0.00,,,0.00,Wunderground v.1.15,2013-05-27 11:04:00,
2013-05-27 07:10:00,60.3,55.4,30.23,NW,321,2.0,3.0,84,0.00,,,0.00,Wunderground v.1.15,2013-05-27 11:10:00,
2013-05-27 07:16:00,60.6,55.4,30.23,NW,319,2.0,3.0,83,0.00,,,0.00,Wunderground v.1.15,2013-05-27 11:16:00,
2013-05-27 07:22:00,61.0,55.8,30.23,NW,322,2.0,3.0,83,0.00,,,0.00,Wunderground v.1.15,2013-05-27 11:22:00,
2013-05-27 07:28:00,61.3,56.1,30.23,NW,319,2.0,4.0,83,0.00,,,0.00,Wunderground v.1.15,2013-05-27 11:28:00,
2013-05-27 07:34:00,61.5,56.3,30.23,WNW,299,2.0,2.0,83,0.00,,,0.00,Wunderground v.1.15,2013-05-27 11:34:00,
2013-05-27 07:40:00,61.8,56.6,30.23,NW,319,1.0,3.0,83,0.00,,,0.00,Wunderground v.1.15,2013-05-27 11:40:00,
2013-05-27 07:46:00,61.7,56.5,30.23,NNW,343,3.0,4.0,83,0.00,,,0.00,Wunderground v.1.15,2013-05-27 11:46:00,
2013-05-27 07:52:00,61.8,56.9,30.23,NW,315,3.0,3.0,84,0.00,,,0.00,Wunderground v.1.15,2013-05-27 11:52:00,
2013-05-27 07:58:00,61.9,56.7,30.23,NNW,327,3.0,4.0,83,0.00,,,0.00,Wunderground v.1.15,2013-05-27 11:58:00,
2013-05-27 08:04:00,62.2,57.0,30.23,NNW,339,3.0,5.0,83,0.00,,,0.00,Wunderground v.1.15,2013-05-27 12:04:00,
2013-05-27 08:10:00,62.5,56.9,30.23,NNW,333,3.0,4.0,82,0.00,,,0.00,Wunderground v.1.15,2013-05-27 12:10:00,
2013-05-27 08:16:00,62.7,57.1,30.24,NW,323,3.0,4.0,82,0.00,,,0.00,Wunderground v.1.15,2013-05-27 12:16:00,
2013-05-27 08:22:00,62.9,56.6,30.24,NW,311,3.0,6.0,80,0.00,,,0.00,Wunderground v.1.15,2013-05-27 12:22:00,
2013-05-27 08:28:00,63.0,56.7,30.24,NNW,328,4.0,6.0,80,0.00,,,0.00,Wunderground v.1.15,2013-05-27 12:28:00,
2013-05-27 08:34:00,63.4,57.1,30.24,NNW,328,4.0,5.0,80,0.00,,,0.00,Wunderground v.1.15,2013-05-27 12:34:00,
2013-05-27 08:40:00,63.4,56.4,30.24,NNW,328,3.0,3.0,78,0.00,,,0.00,Wunderground v.1.15,2013-05-27 12:40:00,
2013-05-27 08:46:00,63.8,56.8,30.24,NNW,334,3.0,3.0,78,0.00,,,0.00,Wunderground v.1.15,2013-05-27 12:46:00,
2013-05-27 08:52:00,63.9,56.5,30.24,NW,319,3.0,5.0,77,0.00,,,0.00,Wunderground v.1.15,2013-05-27 12:52:00,
2013-05-27 08:58:00,64.1,56.7,30.24,NNW,338,4.0,5.0,77,0.00,,,0.00,Wunderground v.1.15,2013-05-27 12:58:00,
2013-05-27 09:04:00,64.3,56.2,30.24,NNW,335,4.0,8.0,75,0.00,,,0.00,Wunderground v.1.15,2013-05-27 13:04:00,
2013-05-27 09:10:00,63.9,55.4,30.24,North,360,5.0,5.0,74,0.00,,,0.00,Wunderground v.1.15,2013-05-27 13:10:00,
2013-05-27 09:16:00,64.3,55.5,30.24,NNW,328,5.0,5.0,73,0.00,,,0.00,Wunderground v.1.15,2013-05-27 13:16:00,
2013-05-27 09:22:00,64.6,55.7,30.24,NNE,13,4.0,5.0,73,0.00,,,0.00,Wunderground v.1.15,2013-05-27 13:22:00,
2013-05-27 09:28:00,65.0,55.8,30.24,NW,314,3.0,5.0,72,0.00,,,0.00,Wunderground v.1.15,2013-05-27 13:28:00,
2013-05-27 09:34:00,65.3,55.3,30.24,NW,317,3.0,3.0,70,0.00,,,0.00,Wunderground v.1.15,2013-05-27 13:34:00,
2013-05-27 09:40:00,65.3,56.0,30.24,NNE,25,3.0,3.0,72,0.00,,,0.00,Wunderground v.1.15,2013-05-27 13:40:00,
2013-05-27 09:46:00,65.5,55.5,30.24,NNE,13,3.0,5.0,70,0.00,,,0.00,Wunderground v.1.15,2013-05-27 13:46:00,
2013-05-27 09:52:00,65.4,56.1,30.23,North,11,3.0,3.0,72,0.00,,,0.00,Wunderground v.1.15,2013-05-27 13:52:00,
2013-05-27 09:58:00,65.4,55.7,30.23,North,357,3.0,5.0,71,0.00,,,0.00,Wunderground v.1.15,2013-05-27 13:58:00,
2013-05-27 10:04:00,65.7,56.8,30.23,NW,307,2.0,3.0,73,0.00,,,0.00,Wunderground v.1.15,2013-05-27 14:04:00,
2013-05-27 10:10:00,66.5,56.4,30.23,NNW,330,1.0,1.0,70,0.00,,,0.00,Wunderground v.1.15,2013-05-27 14:10:00,
2013-05-27 10:16:00,67.5,57.0,30.23,NNW,340,1.0,3.0,69,0.00,,,0.00,Wunderground v.1.15,2013-05-27 14:16:00,
2013-05-27 10:22:00,67.8,56.9,30.22,North,8,1.0,2.0,68,0.00,,,0.00,Wunderground v.1.15,2013-05-27 14:22:00,
2013-05-27 10:28:00,69.1,57.7,30.22,NNW,343,1.0,2.0,67,0.00,,,0.00,Wunderground v.1.15,2013-05-27 14:28:00,
2013-05-27 10:34:00,69.7,58.3,30.22,NE,43,0.0,1.0,67,0.00,,,0.00,Wunderground v.1.15,2013-05-27 14:34:00,
2013-05-27 10:40:00,70.6,57.8,30.22,NE,40,0.0,1.0,64,0.00,,,0.00,Wunderground v.1.15,2013-05-27 14:40:00,
2013-05-27 10:46:00,70.6,58.3,30.21,NNW,347,1.0,2.0,65,0.00,,,0.00,Wunderground v.1.15,2013-05-27 14:46:00,
2013-05-27 10:52:00,70.9,59.0,30.21,NNE,13,1.0,1.0,66,0.00,,,0.00,Wunderground v.1.15,2013-05-27 14:52:00,
2013-05-27 10:58:00,70.6,57.8,30.21,North,352,1.0,1.0,64,0.00,,,0.00,Wunderground v.1.15,2013-05-27 14:58:00,
2013-05-27 11:04:00,70.4,59.3,30.21,NNE,30,1.0,2.0,68,0.00,,,0.00,Wunderground v.1.15,2013-05-27 15:04:00,
2013-05-27 11:10:00,70.3,58.4,30.21,NNE,16,2.0,3.0,66,0.00,,,0.00,Wunderground v.1.15,2013-05-27 15:10:00,
2013-05-27 11:16:00,70.3,58.4,30.21,NNE,21,1.0,3.0,66,0.00,,,0.00,Wunderground v.1.15,2013-05-27 15:16:00,
2013-05-27 11:22:00,70.5,58.6,30.21,NNE,15,2.0,2.0,66,0.00,,,0.00,Wunderground v.1.15,2013-05-27 15:22:00,
2013-05-27 11:28:00,71.0,59.9,30.21,NE,36,2.0,3.0,68,0.00,,,0.00,Wunderground v.1.15,2013-05-27 15:28:00,
2013-05-27 11:34:00,71.1,60.0,30.21,North,11,2.0,4.0,68,0.00,,,0.00,Wunderground v.1.15,2013-05-27 15:34:00,
2013-05-27 11:40:00,70.8,59.3,30.21,NNE,23,3.0,4.0,67,0.00,,,0.00,Wunderground v.1.15,2013-05-27 15:40:00,
2013-05-27 11:46:00,70.9,59.4,30.21,NE,36,3.0,4.0,67,0.00,,,0.00,Wunderground v.1.15,2013-05-27 15:46:00,
2013-05-27 11:52:00,70.6,58.7,30.21,NNE,26,4.0,4.0,66,0.00,,,0.00,Wunderground v.1.15,2013-05-27 15:52:00,
2013-05-27 11:58:00,70.8,60.5,30.21,NNE,26,4.0,5.0,70,0.00,,,0.00,Wunderground v.1.15,2013-05-27 15:58:00,
2013-05-27 12:04:00,70.9,60.2,30.21,North,9,5.0,6.0,69,0.00,,,0.00,Wunderground v.1.15,2013-05-27 16:04:00,
2013-05-27 12:10:00,71.0,59.9,30.21,North,10,5.0,5.0,68,0.00,,,0.00,Wunderground v.1.15,2013-05-27 16:10:00,
2013-05-27 12:16:00,71.0,59.5,30.21,NE,38,4.0,5.0,67,0.00,,,0.00,Wunderground v.1.15,2013-05-27 16:16:00,
2013-05-27 12:22:00,71.3,59.8,30.20,NE,36,4.0,4.0,67,0.00,,,0.00,Wunderground v.1.15,2013-05-27 16:22:00,
2013-05-27 12:28:00,71.6,59.6,30.20,NNE,25,4.0,5.0,66,0.00,,,0.00,Wunderground v.1.15,2013-05-27 16:28:00,
2013-05-27 12:34:00,72.0,59.6,30.20,NNE,20,4.0,6.0,65,0.00,,,0.00,Wunderground v.1.15,2013-05-27 16:34:00,
2013-05-27 12:40:00,72.3,58.5,30.20,NE,34,4.0,4.0,62,0.00,,,0.00,Wunderground v.1.15,2013-05-27 16:40:00,
2013-05-27 12:46:00,72.6,58.8,30.19,North,9,4.0,7.0,62,0.00,,,0.00,Wunderground v.1.15,2013-05-27 16:46:00,
2013-05-27 12:52:00,73.6,59.8,30.19,ENE,71,4.0,6.0,62,0.00,,,0.00,Wunderground v.1.15,2013-05-27 16:52:00,
2013-05-27 12:58:00,73.7,58.5,30.19,ENE,57,4.0,6.0,59,0.00,,,0.00,Wunderground v.1.15,2013-05-27 16:58:00,
2013-05-27 13:04:00,73.8,59.5,30.19,NNE,30,5.0,6.0,61,0.00,,,0.00,Wunderground v.1.15,2013-05-27 17:04:00,
2013-05-27 13:10:00,73.8,57.6,30.18,NE,36,6.0,6.0,57,0.00,,,0.00,Wunderground v.1.15,2013-05-27 17:10:00,
2013-05-27 13:16:00,74.0,58.3,30.18,NE,45,6.0,6.0,58,0.00,,,0.00,Wunderground v.1.15,2013-05-27 17:16:00,
2013-05-27 13:22:00,74.2,58.5,30.18,NE,46,6.0,8.0,58,0.00,,,0.00,Wunderground v.1.15,2013-05-27 17:22:00,
2013-05-27 13:28:00,74.6,60.3,30.18,NE,46,6.0,8.0,61,0.00,,,0.00,Wunderground v.1.15,2013-05-27 17:28:00,
2013-05-27 13:34:00,75.3,60.9,30.18,NE,39,5.0,7.0,61,0.00,,,0.00,Wunderground v.1.15,2013-05-27 17:34:00,
2013-05-27 13:40:00,76.6,59.7,30.18,SSW,194,4.0,4.0,56,0.00,,,0.00,Wunderground v.1.15,2013-05-27 17:40:00,
2013-05-27 13:46:00,77.4,60.0,30.17,NE,50,4.0,5.0,55,0.00,,,0.00,Wunderground v.1.15,2013-05-27 17:46:00,
2013-05-27 13:52:00,78.0,59.5,30.17,South,180,4.0,4.0,53,0.00,,,0.00,Wunderground v.1.15,2013-05-27 17:52:00,
2013-05-27 13:58:00,78.7,59.6,30.17,SSW,203,4.0,8.0,52,0.00,,,0.00,Wunderground v.1.15,2013-05-27 17:58:00,
2013-05-27 14:04:00,78.8,58.0,30.17,South,175,5.0,7.0,49,0.00,,,0.00,Wunderground v.1.15,2013-05-27 18:04:00,
2013-05-27 14:10:00,78.4,57.7,30.17,SW,219,7.0,7.0,49,0.00,,,0.00,Wunderground v.1.15,2013-05-27 18:10:00,
2013-05-27 14:16:00,78.7,59.0,30.17,South,183,8.0,9.0,51,0.00,,,0.00,Wunderground v.1.15,2013-05-27 18:16:00,
2013-05-27 14:22:00,78.9,59.2,30.17,SW,215,7.0,7.0,51,0.00,,,0.00,Wunderground v.1.15,2013-05-27 18:22:00,
2013-05-27 14:28:00,79.6,58.2,30.17,SSW,208,6.0,9.0,48,0.00,,,0.00,Wunderground v.1.15,2013-05-27 18:28:00,
2013-05-27 14:34:00,79.4,58.0,30.16,South,175,6.0,6.0,48,0.00,,,0.00,Wunderground v.1.15,2013-05-27 18:34:00,
2013-05-27 14:40:00,79.3,57.9,30.16,SSW,204,7.0,9.0,48,0.00,,,0.00,Wunderground v.1.15,2013-05-27 18:40:00,
2013-05-27 14:46:00,79.4,57.4,30.16,SSW,202,9.0,12.0,47,0.00,,,0.00,Wunderground v.1.15,2013-05-27 18:46:00,
2013-05-27 14:52:00,79.6,57.6,30.16,South,178,8.0,12.0,47,0.00,,,0.00,Wunderground v.1.15,2013-05-27 18:52:00,
2013-05-27 14:58:00,79.7,58.3,30.16,South,183,8.0,13.0,48,0.00,,,0.00,Wunderground v.1.15,2013-05-27 18:58:00,
2013-05-27 15:04:00,80.2,58.1,30.15,SSW,203,8.0,10.0,47,0.00,,,0.00,Wunderground v.1.15,2013-05-27 19:04:00,
2013-05-27 15:10:00,80.7,58.6,30.15,SSW,193,7.0,14.0,47,0.00,,,0.00,Wunderground v.1.15,2013-05-27 19:10:00,
2013-05-27 15:16:00,80.4,58.9,30.15,SSW,194,9.0,14.0,48,0.00,,,0.00,Wunderground v.1.15,2013-05-27 19:16:00,
2013-05-27 15:22:00,80.3,58.8,30.14,South,170,9.0,13.0,48,0.00,,,0.00,Wunderground v.1.15,2013-05-27 19:22:00,
2013-05-27 15:28:00,80.6,58.5,30.13,SSW,200,9.0,13.0,47,0.00,,,0.00,Wunderground v.1.15,2013-05-27 19:28:00,
2013-05-27 15:34:00,80.6,58.5,30.13,SSW,208,8.0,11.0,47,0.00,,,0.00,Wunderground v.1.15,2013-05-27 19:34:00,
2013-05-27 15:40:00,80.8,58.7,30.13,SSW,203,7.0,7.0,47,0.00,,,0.00,Wunderground v.1.15,2013-05-27 19:40:00,
2013-05-27 15:46:00,80.8,58.1,30.13,South,170,6.0,11.0,46,0.00,,,0.00,Wunderground v.1.15,2013-05-27 19:46:00,
2013-05-27 15:52:00,81.2,58.5,30.12,South,179,6.0,8.0,46,0.00,,,0.00,Wunderground v.1.15,2013-05-27 19:52:00,
2013-05-27 15:58:00,81.2,60.2,30.12,SE,129,6.0,8.0,49,0.00,,,0.00,Wunderground v.1.15,2013-05-27 19:58:00,
2013-05-27 16:04:00,81.3,58.5,30.12,South,170,6.0,10.0,46,0.00,,,0.00,Wunderground v.1.15,2013-05-27 20:04:00,
2013-05-27 16:10:00,81.1,59.0,30.12,SSW,205,7.0,7.0,47,0.00,,,0.00,Wunderground v.1.15,2013-05-27 20:10:00,
2013-05-27 16:16:00,81.0,58.9,30.12,SSW,204,7.0,9.0,47,0.00,,,0.00,Wunderground v.1.15,2013-05-27 20:16:00,
2013-05-27 16:22:00,81.2,59.6,30.12,SSE,163,6.0,7.0,48,0.00,,,0.00,Wunderground v.1.15,2013-05-27 20:22:00,
2013-05-27 16:28:00,80.9,59.9,30.12,South,190,7.0,11.0,49,0.00,,,0.00,Wunderground v.1.15,2013-05-27 20:28:00,
2013-05-27 16:34:00,81.3,59.7,30.12,SSE,166,7.0,8.0,48,0.00,,,0.00,Wunderground v.1.15,2013-05-27 20:34:00,
2013-05-27 16:40:00,81.1,58.4,30.12,SSE,165,6.0,6.0,46,0.00,,,0.00,Wunderground v.1.15,2013-05-27 20:40:00,
2013-05-27 16:46:00,81.6,60.0,30.12,SSE,152,6.0,8.0,48,0.00,,,0.00,Wunderground v.1.15,2013-05-27 20:46:00,
2013-05-27 16:52:00,81.7,60.1,30.12,SW,222,5.0,5.0,48,0.00,,,0.00,Wunderground v.1.15,2013-05-27 20:52:00,
2013-05-27 16:58:00,81.7,58.9,30.11,South,186,5.0,6.0,46,0.00,,,0.00,Wunderground v.1.15,2013-05-27 20:58:00,
2013-05-27 17:04:00,81.6,59.4,30.11,SSW,194,6.0,8.0,47,0.00,,,0.00,Wunderground v.1.15,2013-05-27 21:04:00,
2013-05-27 17:10:00,81.6,59.4,30.11,SSW,197,6.0,13.0,47,0.00,,,0.00,Wunderground v.1.15,2013-05-27 21:10:00,
2013-05-27 17:16:00,81.5,59.3,30.11,SSW,195,7.0,13.0,47,0.00,,,0.00,Wunderground v.1.15,2013-05-27 21:16:00,
2013-05-27 17:22:00,81.5,59.3,30.12,SSW,192,8.0,8.0,47,0.00,,,0.00,Wunderground v.1.15,2013-05-27 21:22:00,
2013-05-27 17:28:00,81.3,58.5,30.12,SSW,207,8.0,8.0,46,0.00,,,0.00,Wunderground v.1.15,2013-05-27 21:28:00,
2013-05-27 17:34:00,81.2,60.8,30.12,South,180,6.0,7.0,50,0.00,,,0.00,Wunderground v.1.15,2013-05-27 21:34:00,
2013-05-27 17:40:00,81.3,60.3,30.12,SSW,197,4.0,4.0,49,0.00,,,0.00,Wunderground v.1.15,2013-05-27 21:40:00,
2013-05-27 17:46:00,81.2,59.6,30.12,South,191,3.0,4.0,48,0.00,,,0.00,Wunderground v.1.15,2013-05-27 21:46:00,
2013-05-27 17:52:00,81.1,60.1,30.11,SE,145,3.0,5.0,49,0.00,,,0.00,Wunderground v.1.15,2013-05-27 21:52:00,
2013-05-27 17:58:00,81.2,59.1,30.11,South,170,4.0,10.0,47,0.00,,,0.00,Wunderground v.1.15,2013-05-27 21:58:00,
2013-05-27 18:04:00,81.2,59.1,30.11,South,188,5.0,5.0,47,0.00,,,0.00,Wunderground v.1.15,2013-05-27 22:04:00,
2013-05-27 18:10:00,81.1,60.1,30.11,South,181,5.0,6.0,49,0.00,,,0.00,Wunderground v.1.15,2013-05-27 22:10:00,
2013-05-27 18:16:00,80.9,59.4,30.11,SSW,204,5.0,6.0,48,0.00,,,0.00,Wunderground v.1.15,2013-05-27 22:16:00,
2013-05-27 18:22:00,81.3,59.7,30.10,SSW,208,5.0,6.0,48,0.00,,,0.00,Wunderground v.1.15,2013-05-27 22:22:00,
2013-05-27 18:28:00,81.4,59.2,30.10,SSW,212,5.0,7.0,47,0.00,,,0.00,Wunderground v.1.15,2013-05-27 22:28:00,
2013-05-27 18:34:00,81.4,58.6,30.10,South,190,5.0,5.0,46,0.00,,,0.00,Wunderground v.1.15,2013-05-27 22:34:00,
2013-05-27 18:40:00,81.5,59.3,30.09,SSE,153,5.0,7.0,47,0.00,,,0.00,Wunderground v.1.15,2013-05-27 22:40:00,
2013-05-27 18:46:00,81.3,59.1,30.09,South,179,6.0,8.0,47,0.00,,,0.00,Wunderground v.1.15,2013-05-27 22:46:00,
2013-05-27 18:52:00,81.2,60.2,30.09,South,191,5.0,5.0,49,0.00,,,0.00,Wunderground v.1.15,2013-05-27 22:52:00,
2013-05-27 18:58:00,81.1,59.0,30.09,South,188,4.0,5.0,47,0.00,,,0.00,Wunderground v.1.15,2013-05-27 22:58:00,
2013-05-27 19:04:00,81.0,58.9,30.09,South,179,4.0,5.0,47,0.00,,,0.00,Wunderground v.1.15,2013-05-27 23:04:00,
2013-05-27 19:10:00,81.0,59.5,30.09,South,183,3.0,3.0,48,0.00,,,0.00,Wunderground v.1.15,2013-05-27 23:10:00,
2013-05-27 19:16:00,80.8,59.3,30.09,South,186,3.0,6.0,48,0.00,,,0.00,Wunderground v.1.15,2013-05-27 23:16:00,
2013-05-27 19:22:00,80.7,59.8,30.09,SSW,201,4.0,4.0,49,0.00,,,0.00,Wunderground v.1.15,2013-05-27 23:22:00,
2013-05-27 19:28:00,80.5,59.6,30.09,South,181,4.0,5.0,49,0.00,,,0.00,Wunderground v.1.15,2013-05-27 23:28:00,
2013-05-27 19:34:00,80.1,59.8,30.09,South,190,3.0,3.0,50,0.00,,,0.00,Wunderground v.1.15,2013-05-27 23:34:00,
2013-05-27 19:40:00,79.7,60.0,30.09,South,187,3.0,3.0,51,0.00,,,0.00,Wunderground v.1.15,2013-05-27 23:40:00,
2013-05-27 19:46:00,79.6,59.9,30.09,SSW,195,3.0,3.0,51,0.00,,,0.00,Wunderground v.1.15,2013-05-27 23:46:00,
2013-05-27 19:52:00,79.4,59.7,30.09,SSE,156,3.0,3.0,51,0.00,,,0.00,Wunderground v.1.15,2013-05-27 23:52:00,
2013-05-27 19:58:00,79.3,59.6,30.09,South,177,3.0,6.0,51,0.00,,,0.00,Wunderground v.1.15,2013-05-27 23:58:00,
2013-05-27 20:04:00,79.0,59.3,30.09,South,190,4.0,6.0,51,0.00,,,0.00,Wunderground v.1.15,2013-05-28 00:04:00,
2013-05-27 20:10:00,78.7,59.0,30.09,South,180,4.0,6.0,51,0.00,,,0.00,Wunderground v.1.15,2013-05-28 00:10:00,
2013-05-27 20:16:00,78.3,59.2,30.09,SSE,161,3.0,6.0,52,0.00,,,0.00,Wunderground v.1.15,2013-05-28 00:16:00,
2013-05-27 20:22:00,77.9,59.4,30.09,SSE,164,3.0,3.0,53,0.00,,,0.00,Wunderground v.1.15,2013-05-28 00:22:00,
2013-05-27 20:28:00,77.5,59.0,30.09,SSE,154,2.0,3.0,53,0.00,,,0.00,Wunderground v.1.15,2013-05-28 00:28:00,
2013-05-27 20:34:00,76.9,59.0,30.10,SSE,165,2.0,2.0,54,0.00,,,0.00,Wunderground v.1.15,2013-05-28 00:34:00,
2013-05-27 20:40:00,76.5,59.1,30.10,South,169,1.0,1.0,55,0.00,,,0.00,Wunderground v.1.15,2013-05-28 00:40:00,
2013-05-27 20:46:00,76.1,59.3,30.10,SSW,204,1.0,1.0,56,0.00,,,0.00,Wunderground v.1.15,2013-05-28 00:46:00,
2013-05-27 20:52:00,75.4,59.6,30.10,SSW,205,0.0,1.0,58,0.00,,,0.00,Wunderground v.1.15,2013-05-28 00:52:00,
2013-05-27 20:58:00,74.6,58.8,30.10,SSW,204,0.0,1.0,58,0.00,,,0.00,Wunderground v.1.15,2013-05-28 00:58:00,
2013-05-27 21:04:00,73.9,59.1,30.11,SSW,200,0.0,1.0,60,0.00,,,0.00,Wunderground v.1.15,2013-05-28 01:04:00,
2013-05-27 21:10:00,73.3,59.0,30.11,SSW,198,0.0,1.0,61,0.00,,,0.00,Wunderground v.1.15,2013-05-28 01:10:00,
2013-05-27 21:16:00,72.6,59.3,30.11,SSW,199,0.0,1.0,63,0.00,,,0.00,Wunderground v.1.15,2013-05-28 01:16:00,
2013-05-27 21:22:00,71.9,59.5,30.11,SSW,199,0.0,1.0,65,0.00,,,0.00,Wunderground v.1.15,2013-05-28 01:22:00,
2013-05-27 21:28:00,71.2,59.7,30.11,SSW,204,0.0,1.0,67,0.00,,,0.00,Wunderground v.1.15,2013-05-28 01:28:00,
2013-05-27 21:34:00,70.5,59.4,30.11,SW,217,1.0,2.0,68,0.00,,,0.00,Wunderground v.1.15,2013-05-28 01:34:00,
2013-05-27 21:40:00,70.1,59.5,30.11,SW,217,0.0,1.0,69,0.00,,,0.00,Wunderground v.1.15,2013-05-28 01:40:00,
2013-05-27 21:46:00,69.5,58.9,30.12,SW,218,0.0,1.0,69,0.00,,,0.00,Wunderground v.1.15,2013-05-28 01:46:00,
2013-05-27 21:52:00,69.4,59.2,30.12,SW,218,0.0,1.0,70,0.00,,,0.00,Wunderground v.1.15,2013-05-28 01:52:00,
2013-05-27 21:58:00,69.2,59.0,30.12,SW,217,0.0,1.0,70,0.00,,,0.00,Wunderground v.1.15,2013-05-28 01:58:00,
2013-05-27 22:04:00,69.0,58.8,30.12,SW,218,0.0,1.0,70,0.00,,,0.00,Wunderground v.1.15,2013-05-28 02:04:00,
2013-05-27 22:10:00,68.7,58.9,30.13,SW,217,0.0,1.0,71,0.00,,,0.00,Wunderground v.1.15,2013-05-28 02:10:00,
2013-05-27 22:16:00,68.3,58.5,30.13,SW,218,0.0,1.0,71,0.00,,,0.00,Wunderground v.1.15,2013-05-28 02:16:00,
2013-05-27 22:22:00,68.0,58.6,30.13,SW,218,0.0,1.0,72,0.00,,,0.00,Wunderground v.1.15,2013-05-28 02:22:00,
2013-05-27 22:30:00,67.8,58.4,30.13,SW,218,0.0,1.0,72,0.00,,,0.00,Wunderground v.1.15,2013-05-28 02:30:00,
2013-05-27 22:36:00,67.2,58.6,30.13,SW,218,0.0,1.0,74,0.00,,,0.00,Wunderground v.1.15,2013-05-28 02:36:00,
2013-05-27 22:42:00,66.6,58.4,30.13,SW,218,0.0,1.0,75,0.00,,,0.00,Wunderground v.1.15,2013-05-28 02:42:00,
2013-05-27 22:48:00,66.2,58.8,30.12,SW,217,0.0,1.0,77,0.00,,,0.00,Wunderground v.1.15,2013-05-28 02:48:00,
2013-05-27 22:54:00,65.7,58.3,30.13,SW,218,0.0,1.0,77,0.00,,,0.00,Wunderground v.1.15,2013-05-28 02:54:00,
2013-05-27 23:00:00,65.6,58.2,30.13,SW,225,0.0,2.0,77,0.00,,,0.00,Wunderground v.1.15,2013-05-28 03:00:00,
2013-05-27 23:06:00,64.9,58.2,30.13,SW,222,1.0,2.0,79,0.00,,,0.00,Wunderground v.1.15,2013-05-28 03:06:00,
2013-05-27 23:12:00,64.9,58.2,30.13,SW,222,1.0,1.0,79,0.00,,,0.00,Wunderground v.1.15,2013-05-28 03:12:00,
2013-05-27 23:18:00,65.2,58.2,30.13,SW,222,1.0,1.0,78,0.00,,,0.00,Wunderground v.1.15,2013-05-28 03:18:00,
2013-05-27 23:24:00,65.2,58.2,30.13,SW,222,0.0,1.0,78,0.00,,,0.00,Wunderground v.1.15,2013-05-28 03:24:00,
2013-05-27 23:30:00,64.8,57.8,30.13,SW,222,0.0,1.0,78,0.00,,,0.00,Wunderground v.1.15,2013-05-28 03:30:00,
2013-05-27 23:36:00,64.8,58.1,30.13,SW,222,0.0,1.0,79,0.00,,,0.00,Wunderground v.1.15,2013-05-28 03:36:00,
2013-05-27 23:42:00,64.5,58.2,30.13,SW,222,0.0,1.0,80,0.00,,,0.00,Wunderground v.1.15,2013-05-28 03:42:00,
2013-05-27 23:48:00,64.7,58.4,30.13,SW,222,1.0,1.0,80,0.00,,,0.00,Wunderground v.1.15,2013-05-28 03:48:00,
2013-05-27 23:54:00,64.5,58.2,30.13,SW,222,0.0,1.0,80,0.00,,,0.00,Wunderground v.1.15,2013-05-28 03:54:00,